createdAt,value
2023-01-17T00:01:10.861Z,69.39
2023-01-17T00:03:37.206Z,70.51
2023-01-17T00:06:03.530Z,70.33
2023-01-17T00:08:29.823Z,72.65
2023-01-17T00:10:56.121Z,71.64
2023-01-17T00:13:22.433Z,71.84
2023-01-17T00:15:48.888Z,71.53
2023-01-17T00:18:15.205Z,72.03
2023-01-17T00:20:41.520Z,72.14
2023-01-17T00:23:07.822Z,72.79
2023-01-17T00:25:34.123Z,71.78
2023-01-17T00:28:00.446Z,71.72
2023-01-17T00:30:26.761Z,72.19
2023-01-17T00:32:53.120Z,71.59
2023-01-17T00:35:19.470Z,71.03
2023-01-17T00:37:45.765Z,71.10
2023-01-17T00:40:12.055Z,70.62
2023-01-17T00:42:38.369Z,69.81
2023-01-17T00:45:04.672Z,69.39
2023-01-17T00:47:30.963Z,70.32
2023-01-17T00:49:57.283Z,71.70
2023-01-17T00:52:23.600Z,72.22
2023-01-17T00:54:49.897Z,72.34
2023-01-17T00:57:16.221Z,72.67
2023-01-17T00:59:42.514Z,72.73
2023-01-17T01:02:08.911Z,71.65
2023-01-17T01:04:35.265Z,71.75
2023-01-17T01:07:01.552Z,72.38
2023-01-17T01:09:27.843Z,71.01
2023-01-17T01:11:54.179Z,71.13
2023-01-17T01:14:20.496Z,69.75
2023-01-17T01:16:46.792Z,70.47
2023-01-17T01:19:13.099Z,71.34
2023-01-17T01:21:39.386Z,75.32
2023-01-17T01:24:05.676Z,77.44
2023-01-17T01:26:31.998Z,75.45
2023-01-17T01:28:58.286Z,75.68
2023-01-17T01:31:24.622Z,75.70
2023-01-17T01:33:50.967Z,75.64
2023-01-17T01:36:17.264Z,75.07
2023-01-17T01:38:43.556Z,75.74
2023-01-17T01:41:09.902Z,77.31
2023-01-17T01:43:36.179Z,76.50
2023-01-17T01:46:02.502Z,76.53
2023-01-17T01:48:28.822Z,76.65
2023-01-17T01:50:55.121Z,75.47
2023-01-17T01:53:21.424Z,76.86
2023-01-17T01:55:47.838Z,75.53
2023-01-17T01:58:14.125Z,74.45
2023-01-17T02:00:40.453Z,73.69
2023-01-17T02:03:06.830Z,74.21
2023-01-17T02:05:33.123Z,72.49
2023-01-17T02:07:59.427Z,71.98
2023-01-17T02:10:25.748Z,72.08
2023-01-17T02:12:52.038Z,71.08
2023-01-17T02:15:18.325Z,71.21
2023-01-17T02:17:44.633Z,71.23
2023-01-17T02:20:10.940Z,71.57
2023-01-17T02:22:37.239Z,70.68
2023-01-17T02:25:03.553Z,71.26
2023-01-17T02:27:29.860Z,70.29
2023-01-17T02:29:56.156Z,72.12
2023-01-17T02:32:22.480Z,71.96
2023-01-17T02:34:48.910Z,72.40
2023-01-17T02:37:15.190Z,71.46
2023-01-17T02:39:41.506Z,70.79
2023-01-17T02:42:07.802Z,70.92
2023-01-17T02:44:34.099Z,71.65
2023-01-17T02:47:00.446Z,70.37
2023-01-17T02:49:26.747Z,70.27
2023-01-17T02:51:53.034Z,70.48
2023-01-17T02:54:19.342Z,69.79
2023-01-17T02:56:45.653Z,70.79
2023-01-17T02:59:11.973Z,70.52
2023-01-17T03:01:38.477Z,69.34
2023-01-17T03:04:04.837Z,70.21
2023-01-17T03:06:31.139Z,68.45
2023-01-17T03:08:57.461Z,69.89
2023-01-17T03:11:23.759Z,70.80
2023-01-17T03:13:50.058Z,69.70
2023-01-17T03:16:16.394Z,70.23
2023-01-17T03:18:42.714Z,69.77
2023-01-17T03:21:09.010Z,68.73
2023-01-17T03:23:35.321Z,68.14
2023-01-17T03:26:01.620Z,67.99
2023-01-17T03:28:27.915Z,69.20
2023-01-17T03:30:54.268Z,70.21
2023-01-17T03:33:20.592Z,70.74
2023-01-17T03:35:47.007Z,69.24
2023-01-17T03:38:13.317Z,68.81
2023-01-17T03:40:39.620Z,68.72
2023-01-17T03:43:05.923Z,68.55
2023-01-17T03:45:32.278Z,68.49
2023-01-17T03:47:58.591Z,68.75
2023-01-17T03:50:24.882Z,68.92
2023-01-17T03:52:51.254Z,68.46
2023-01-17T03:55:17.547Z,68.71
2023-01-17T03:57:43.832Z,68.79
2023-01-17T04:00:10.140Z,67.52
2023-01-17T04:02:36.575Z,66.92
2023-01-17T04:05:02.884Z,67.33
2023-01-17T04:07:29.213Z,68.11
2023-01-17T04:09:55.514Z,68.84
2023-01-17T04:12:21.822Z,68.20
2023-01-17T04:14:48.147Z,68.41
2023-01-17T04:17:14.571Z,68.63
2023-01-17T04:19:40.857Z,68.00
2023-01-17T04:22:07.167Z,68.40
2023-01-17T04:24:33.659Z,67.51
2023-01-17T04:26:59.999Z,68.28
2023-01-17T04:29:26.314Z,67.72
2023-01-17T04:31:52.631Z,68.53
2023-01-17T04:34:18.962Z,70.13
2023-01-17T04:36:45.275Z,68.61
2023-01-17T04:39:11.587Z,68.58
2023-01-17T04:41:37.889Z,69.11
2023-01-17T04:44:04.200Z,68.11
2023-01-17T04:46:30.480Z,68.46
2023-01-17T04:48:56.765Z,68.74
2023-01-17T04:51:23.089Z,67.94
2023-01-17T04:53:49.418Z,68.19
2023-01-17T04:56:15.787Z,68.29
2023-01-17T04:58:42.140Z,67.86
2023-01-17T05:01:08.538Z,67.79
2023-01-17T05:03:34.886Z,68.30
2023-01-17T05:06:01.196Z,67.67
2023-01-17T05:08:27.507Z,67.95
2023-01-17T05:10:53.828Z,68.41
2023-01-17T05:13:20.139Z,67.81
2023-01-17T05:15:46.466Z,68.45
2023-01-17T05:18:12.783Z,68.09
2023-01-17T05:20:39.107Z,66.76
2023-01-17T05:23:05.406Z,68.34
2023-01-17T05:25:31.686Z,68.89
2023-01-17T05:27:57.989Z,68.92
2023-01-17T05:30:24.296Z,68.95
2023-01-17T05:32:50.572Z,69.38
2023-01-17T05:35:16.881Z,69.33
2023-01-17T05:37:43.177Z,70.99
2023-01-17T05:40:09.466Z,68.51
2023-01-17T05:42:35.789Z,69.59
2023-01-17T05:45:02.096Z,69.25
2023-01-17T05:47:28.399Z,67.54
2023-01-17T05:49:54.725Z,67.98
2023-01-17T05:52:21.032Z,69.08
2023-01-17T05:54:47.329Z,68.90
2023-01-17T05:57:13.645Z,68.33
2023-01-17T05:59:39.931Z,68.81
2023-01-17T06:02:06.260Z,69.90
2023-01-17T06:04:32.753Z,69.99
2023-01-17T06:06:59.086Z,71.43
2023-01-17T06:09:25.381Z,69.12
2023-01-17T06:11:51.674Z,69.23
2023-01-17T06:14:17.961Z,68.67
2023-01-17T06:16:44.279Z,68.67
2023-01-17T06:19:10.593Z,69.99
2023-01-17T06:21:36.889Z,69.38
2023-01-17T06:24:04.284Z,68.81
2023-01-17T06:26:30.743Z,69.31
2023-01-17T06:28:57.029Z,68.60
2023-01-17T06:31:23.388Z,69.54
2023-01-17T06:33:49.731Z,68.91
2023-01-17T06:36:16.050Z,69.14
2023-01-17T06:38:42.378Z,69.12
2023-01-17T06:41:08.716Z,69.97
2023-01-17T06:43:35.010Z,70.01
2023-01-17T06:46:01.316Z,70.05
2023-01-17T06:48:27.625Z,71.08
2023-01-17T06:50:53.933Z,71.50
2023-01-17T06:53:20.239Z,71.09
2023-01-17T06:55:46.577Z,71.79
2023-01-17T06:58:12.924Z,70.01
2023-01-17T07:00:40.943Z,70.09
2023-01-17T07:03:07.518Z,71.62
2023-01-17T07:05:33.815Z,71.00
2023-01-17T07:08:00.115Z,71.10
2023-01-17T07:10:26.462Z,72.25
2023-01-17T07:12:52.758Z,74.13
2023-01-17T07:15:19.076Z,75.73
2023-01-17T07:17:45.403Z,77.45
2023-01-17T07:20:11.710Z,77.42
2023-01-17T07:22:38.012Z,77.55
2023-01-17T07:25:04.331Z,77.60
2023-01-17T07:27:30.681Z,79.84
2023-01-17T07:29:57.002Z,80.53
2023-01-17T07:32:23.330Z,81.42
2023-01-17T07:34:49.634Z,80.60
2023-01-17T07:37:15.927Z,81.12
2023-01-17T07:39:42.245Z,82.85
2023-01-17T07:42:08.532Z,82.14
2023-01-17T07:44:34.838Z,80.74
2023-01-17T07:47:01.187Z,81.16
2023-01-17T07:49:27.484Z,81.47
2023-01-17T07:51:53.787Z,82.55
2023-01-17T07:54:21.210Z,82.66
2023-01-17T07:56:47.511Z,84.34
2023-01-17T07:59:13.817Z,83.20
2023-01-17T08:01:40.224Z,82.07
2023-01-17T08:04:06.620Z,82.97
2023-01-17T08:06:32.960Z,82.14
2023-01-17T08:08:59.276Z,82.09
2023-01-17T08:11:25.588Z,82.61
2023-01-17T08:13:51.882Z,83.36
2023-01-17T08:16:18.247Z,82.57
2023-01-17T08:18:44.557Z,82.41
2023-01-17T08:21:10.858Z,81.60
2023-01-17T08:23:37.173Z,82.08
2023-01-17T08:26:03.599Z,82.07
2023-01-17T08:28:29.902Z,80.20
2023-01-17T08:30:56.221Z,79.65
2023-01-17T08:33:22.508Z,79.68
2023-01-17T08:35:48.799Z,78.62
2023-01-17T08:38:15.132Z,79.59
2023-01-17T08:40:42.805Z,79.00
2023-01-17T08:43:09.533Z,78.39
2023-01-17T08:45:35.912Z,79.65
2023-01-17T08:48:02.221Z,79.59
2023-01-17T08:50:28.508Z,78.25
2023-01-17T08:52:54.853Z,78.99
2023-01-17T08:55:21.161Z,78.38
2023-01-17T08:57:47.881Z,79.16
2023-01-17T09:00:14.218Z,77.36
2023-01-17T09:02:40.510Z,77.73
2023-01-17T09:05:06.812Z,78.45
2023-01-17T09:07:33.139Z,79.41
2023-01-17T09:09:59.449Z,78.86
2023-01-17T09:12:25.759Z,78.53
2023-01-17T09:14:52.081Z,78.37
2023-01-17T09:17:18.391Z,78.19
2023-01-17T09:19:44.731Z,78.65
2023-01-17T09:22:11.102Z,79.14
2023-01-17T09:24:37.397Z,78.87
2023-01-17T09:27:03.698Z,78.94
2023-01-17T09:29:30.047Z,78.80
2023-01-17T09:31:56.350Z,78.54
2023-01-17T09:34:22.673Z,78.37
2023-01-17T09:36:48.991Z,80.24
2023-01-17T09:39:15.343Z,81.79
2023-01-17T09:41:41.676Z,79.64
2023-01-17T09:44:08.011Z,78.78
2023-01-17T09:46:34.356Z,80.97
2023-01-17T09:49:00.646Z,81.49
2023-01-17T09:51:26.965Z,87.87
2023-01-17T09:53:53.267Z,87.27
2023-01-17T09:56:19.571Z,87.70
2023-01-17T09:58:45.889Z,87.60
2023-01-17T10:01:12.362Z,92.61
2023-01-17T10:03:38.897Z,91.32
2023-01-17T10:06:05.348Z,87.41
2023-01-17T10:08:31.665Z,89.05
2023-01-17T10:10:57.965Z,89.31
2023-01-17T10:13:24.285Z,87.51
2023-01-17T10:15:50.564Z,88.92
2023-01-17T10:18:29.108Z,89.83
2023-01-17T10:20:56.531Z,88.72
2023-01-17T10:23:22.841Z,89.16
2023-01-17T10:25:49.146Z,88.38
2023-01-17T10:28:15.502Z,88.93
2023-01-17T10:30:41.816Z,89.86
2023-01-17T10:33:08.121Z,90.38
2023-01-17T10:35:34.533Z,88.57
2023-01-17T10:38:00.824Z,88.44
2023-01-17T10:40:27.114Z,88.86
2023-01-17T10:42:53.439Z,88.49
2023-01-17T10:45:19.729Z,87.68
2023-01-17T10:47:46.021Z,89.09
2023-01-17T10:50:12.349Z,88.46
2023-01-17T10:52:38.684Z,88.47
2023-01-17T10:55:05.003Z,89.89
2023-01-17T10:57:31.344Z,86.88
2023-01-17T10:59:57.647Z,87.42
2023-01-17T11:02:24.014Z,87.66
2023-01-17T11:04:50.386Z,89.80
2023-01-17T11:07:16.682Z,87.54
2023-01-17T11:09:42.985Z,88.60
2023-01-17T11:12:09.323Z,88.90
2023-01-17T11:14:35.631Z,89.62
2023-01-17T11:17:01.940Z,88.14
2023-01-17T11:19:28.253Z,87.88
2023-01-17T11:21:54.541Z,87.68
2023-01-17T11:24:20.891Z,86.33
2023-01-17T11:26:47.224Z,85.82
2023-01-17T11:29:13.523Z,84.38
2023-01-17T11:31:39.845Z,84.58
2023-01-17T11:34:06.189Z,84.85
2023-01-17T11:36:32.481Z,83.34
2023-01-17T11:38:58.777Z,82.26
2023-01-17T11:41:25.094Z,82.42
2023-01-17T11:43:51.380Z,82.97
2023-01-17T11:46:17.710Z,81.78
2023-01-17T11:48:44.080Z,80.93
2023-01-17T11:51:10.385Z,82.81
2023-01-17T11:53:36.672Z,82.85
2023-01-17T11:56:02.991Z,82.27
2023-01-17T11:58:29.311Z,82.32
2023-01-17T12:00:55.711Z,81.72
2023-01-17T12:03:22.039Z,82.68
2023-01-17T12:05:48.388Z,81.90
2023-01-17T12:08:14.703Z,81.68
2023-01-17T12:10:41.029Z,81.48
2023-01-17T12:13:07.329Z,78.77
2023-01-17T12:15:33.636Z,78.47
2023-01-17T12:17:59.974Z,78.76
2023-01-17T12:20:26.269Z,80.09
2023-01-17T12:22:52.569Z,79.92
2023-01-17T12:25:18.900Z,79.82
2023-01-17T12:27:45.207Z,78.96
2023-01-17T12:30:11.516Z,78.59
2023-01-17T12:32:37.847Z,78.86
2023-01-17T12:35:04.145Z,78.01
2023-01-17T12:37:30.478Z,78.71
2023-01-17T12:39:56.854Z,78.97
2023-01-17T12:42:23.151Z,78.81
2023-01-17T12:44:49.455Z,77.72
2023-01-17T12:47:15.768Z,79.19
2023-01-17T12:49:42.074Z,77.84
2023-01-17T12:52:08.474Z,79.48
2023-01-17T12:54:34.785Z,78.96
2023-01-17T12:57:01.089Z,78.17
2023-01-17T12:59:27.439Z,77.94
2023-01-17T13:01:53.936Z,77.50
2023-01-17T13:04:20.286Z,78.99
2023-01-17T13:06:46.575Z,77.61
2023-01-17T13:09:12.902Z,76.78
2023-01-17T13:11:39.223Z,78.25
2023-01-17T13:14:05.518Z,78.07
2023-01-17T13:16:31.908Z,77.69
2023-01-17T13:18:58.271Z,77.57
2023-01-17T13:21:24.553Z,77.30
2023-01-17T13:23:50.879Z,77.86
2023-01-17T13:26:17.187Z,78.29
2023-01-17T13:28:43.488Z,76.98
2023-01-17T13:31:09.839Z,77.64
2023-01-17T13:33:36.172Z,78.15
2023-01-17T13:36:02.590Z,77.43
2023-01-17T13:38:28.908Z,77.28
2023-01-17T13:40:55.197Z,77.07
2023-01-17T13:43:21.490Z,76.46
2023-01-17T13:45:47.841Z,76.75
2023-01-17T13:48:14.137Z,78.66
2023-01-17T13:50:40.431Z,78.04
2023-01-17T13:53:06.769Z,79.07
2023-01-17T13:55:33.091Z,78.63
2023-01-17T13:57:59.390Z,77.34
2023-01-17T14:00:25.730Z,76.95
2023-01-17T14:02:52.120Z,77.79
2023-01-17T14:05:18.502Z,78.50
2023-01-17T14:07:44.820Z,78.62
2023-01-17T14:10:11.140Z,77.93
2023-01-17T14:12:37.437Z,77.83
2023-01-17T14:15:03.792Z,77.23
2023-01-17T14:17:30.123Z,77.32
2023-01-17T14:19:56.425Z,76.67
2023-01-17T14:22:22.747Z,76.67
2023-01-17T14:24:49.038Z,77.62
2023-01-17T14:27:15.345Z,77.27
2023-01-17T14:29:41.701Z,75.81
2023-01-17T14:32:08.027Z,75.94
2023-01-17T14:34:34.328Z,76.56
2023-01-17T14:37:00.651Z,76.04
2023-01-17T14:39:26.952Z,77.54
2023-01-17T14:41:53.254Z,77.33
2023-01-17T14:44:19.580Z,77.21
2023-01-17T14:46:45.873Z,76.74
2023-01-17T14:49:12.169Z,77.73
2023-01-17T14:51:38.525Z,78.15
2023-01-17T14:54:04.822Z,75.56
2023-01-17T14:56:31.119Z,75.58
2023-01-17T14:58:57.461Z,76.35
2023-01-17T15:01:23.844Z,76.85
2023-01-17T15:03:50.204Z,76.35
2023-01-17T15:06:16.528Z,75.59
2023-01-17T15:08:42.832Z,75.94
2023-01-17T15:11:09.117Z,76.91
2023-01-17T15:13:43.760Z,78.73
2023-01-17T15:16:10.477Z,76.73
2023-01-17T15:18:36.834Z,78.06
2023-01-17T15:21:03.167Z,77.17
2023-01-17T15:23:29.462Z,76.82
2023-01-17T15:25:55.781Z,76.59
2023-01-17T15:28:22.084Z,76.33
2023-01-17T15:30:50.046Z,77.50
2023-01-17T15:33:18.333Z,77.21
2023-01-17T15:35:44.670Z,76.67
2023-01-17T15:38:13.804Z,77.50
2023-01-17T15:40:40.227Z,77.11
2023-01-17T15:43:06.719Z,76.26
2023-01-17T15:45:33.055Z,75.47
2023-01-17T15:47:59.384Z,75.10
2023-01-17T15:50:25.691Z,75.59
2023-01-17T15:52:51.995Z,76.29
2023-01-17T15:55:18.394Z,76.07
2023-01-17T15:57:44.682Z,76.46
2023-01-17T16:00:10.979Z,74.59
2023-01-17T16:02:37.369Z,76.15
2023-01-17T16:05:03.747Z,76.01
2023-01-17T16:07:30.044Z,76.82
2023-01-17T16:09:56.374Z,76.08
2023-01-17T16:12:23.027Z,74.79
2023-01-17T16:15:06.187Z,74.77
2023-01-17T16:17:35.691Z,76.09
2023-01-17T16:20:02.001Z,76.34
2023-01-17T16:22:28.305Z,75.23
2023-01-17T16:24:54.613Z,76.06
2023-01-17T16:27:20.919Z,75.28
2023-01-17T16:29:47.215Z,75.19
2023-01-17T16:32:13.537Z,75.50
2023-01-17T16:34:39.832Z,75.83
2023-01-17T16:37:06.134Z,76.57
2023-01-17T16:39:32.445Z,75.16
2023-01-17T16:41:58.757Z,76.29
2023-01-17T16:44:25.058Z,74.89
2023-01-17T16:46:51.405Z,75.54
2023-01-17T16:49:17.712Z,74.37
2023-01-17T16:51:43.999Z,75.40
2023-01-17T16:54:10.315Z,75.15
2023-01-17T16:56:36.617Z,74.21
2023-01-17T16:59:02.977Z,75.06
2023-01-17T17:01:29.447Z,74.23
2023-01-17T17:03:55.781Z,74.65
2023-01-17T17:06:22.183Z,74.09
2023-01-17T17:08:48.511Z,74.87
2023-01-17T17:11:14.808Z,73.90
2023-01-17T17:13:41.112Z,73.76
2023-01-17T17:16:07.579Z,74.52
2023-01-17T17:18:33.923Z,76.10
2023-01-17T17:21:00.295Z,76.02
2023-01-17T17:23:26.612Z,76.85
2023-01-17T17:25:52.903Z,77.40
2023-01-17T17:28:19.217Z,78.17
2023-01-17T17:30:45.641Z,77.95
2023-01-17T17:33:11.954Z,77.56
2023-01-17T17:35:38.314Z,78.74
2023-01-17T17:38:04.640Z,78.20
2023-01-17T17:40:30.935Z,77.92
2023-01-17T17:42:57.241Z,78.44
2023-01-17T17:45:23.595Z,79.56
2023-01-17T17:47:49.909Z,78.83
2023-01-17T17:50:16.232Z,78.62
2023-01-17T17:52:42.558Z,78.28
2023-01-17T17:55:08.857Z,77.80
2023-01-17T17:57:35.160Z,77.72
2023-01-17T18:00:01.472Z,77.61
2023-01-17T18:02:27.777Z,78.03
2023-01-17T18:04:54.107Z,77.76
2023-01-17T18:07:20.483Z,77.49
2023-01-17T18:09:46.781Z,77.58
2023-01-17T18:12:13.074Z,77.43
2023-01-17T18:14:39.384Z,77.72
2023-01-17T18:17:05.677Z,77.71
2023-01-17T18:19:32.000Z,78.34
2023-01-17T18:21:58.318Z,77.34
2023-01-17T18:24:24.636Z,77.83
2023-01-17T18:26:50.939Z,77.23
2023-01-17T18:29:17.255Z,77.40
2023-01-17T18:31:43.598Z,77.54
2023-01-17T18:34:09.925Z,77.40
2023-01-17T18:36:36.305Z,76.65
2023-01-17T18:39:02.606Z,76.19
2023-01-17T18:41:28.911Z,77.45
2023-01-17T18:43:55.239Z,77.15
2023-01-17T18:46:21.573Z,77.72
2023-01-17T18:48:47.891Z,77.37
2023-01-17T18:51:14.193Z,77.56
2023-01-17T18:53:40.501Z,77.92
2023-01-17T18:56:06.867Z,77.18
2023-01-17T18:58:33.210Z,76.59
2023-01-17T19:00:59.580Z,76.92
2023-01-17T19:03:25.945Z,76.06
2023-01-17T19:05:52.268Z,75.75
2023-01-17T19:08:18.567Z,75.24
2023-01-17T19:10:44.878Z,74.51
2023-01-17T19:13:11.226Z,73.93
2023-01-17T19:15:37.522Z,73.38
2023-01-17T19:18:03.827Z,72.63
2023-01-17T19:20:30.146Z,72.49
2023-01-17T19:22:56.437Z,70.67
2023-01-17T19:25:22.728Z,71.27
2023-01-17T19:27:49.063Z,71.03
2023-01-17T19:30:15.355Z,71.21
2023-01-17T19:32:41.661Z,70.22
2023-01-17T19:35:07.972Z,70.11
2023-01-17T19:37:34.358Z,70.23
2023-01-17T19:40:00.647Z,70.14
2023-01-17T19:42:26.984Z,70.33
2023-01-17T19:44:53.280Z,71.38
2023-01-17T19:47:19.595Z,71.40
2023-01-17T19:49:45.909Z,72.03
2023-01-17T19:52:12.205Z,72.04
2023-01-17T19:54:38.513Z,71.41
2023-01-17T19:57:04.825Z,70.86
2023-01-17T19:59:31.131Z,71.15
2023-01-17T20:01:57.557Z,71.14
2023-01-17T20:04:24.015Z,70.96
2023-01-17T20:06:50.358Z,71.10
2023-01-17T20:09:16.652Z,72.61
2023-01-17T20:11:42.975Z,72.24
2023-01-17T20:14:09.275Z,71.38
2023-01-17T20:16:35.669Z,72.06
2023-01-17T20:19:02.043Z,71.32
2023-01-17T20:21:28.344Z,72.66
2023-01-17T20:23:57.448Z,72.48
2023-01-17T20:26:23.776Z,73.14
2023-01-17T20:28:50.057Z,73.23
2023-01-17T20:31:16.392Z,74.31
2023-01-17T20:33:42.748Z,73.16
2023-01-17T20:36:10.877Z,73.06
2023-01-17T20:38:37.385Z,72.61
2023-01-17T20:41:03.710Z,72.04
2023-01-17T20:43:30.008Z,72.30
2023-01-17T20:45:56.320Z,70.11
2023-01-17T20:48:22.656Z,66.33
2023-01-17T20:50:48.962Z,68.97
2023-01-17T20:53:15.252Z,67.64
2023-01-17T20:55:41.574Z,68.22
2023-01-17T20:58:07.868Z,67.90
2023-01-17T21:00:34.162Z,67.96
2023-01-17T21:03:00.489Z,66.40
2023-01-17T21:05:26.801Z,66.83
2023-01-17T21:07:53.086Z,65.12
2023-01-17T21:10:19.384Z,66.05
2023-01-17T21:12:45.687Z,66.18
2023-01-17T21:15:11.963Z,65.86
2023-01-17T21:17:38.253Z,64.88
2023-01-17T21:20:04.519Z,64.83
2023-01-17T21:22:30.787Z,65.20
2023-01-17T21:24:57.159Z,66.94
2023-01-17T21:27:23.454Z,67.30
2023-01-17T21:29:49.749Z,67.35
2023-01-17T21:32:16.063Z,67.17
2023-01-17T21:34:42.373Z,66.80
2023-01-17T21:37:08.685Z,66.09
2023-01-17T21:39:34.997Z,66.13
2023-01-17T21:42:01.290Z,66.18
2023-01-17T21:44:27.604Z,66.15
2023-01-17T21:46:56.386Z,66.46
2023-01-17T21:49:22.926Z,65.82
2023-01-17T21:51:49.240Z,66.32
2023-01-17T21:54:15.552Z,66.48
2023-01-17T21:56:41.844Z,66.85
2023-01-17T21:59:08.134Z,65.37
2023-01-17T22:01:34.552Z,66.38
2023-01-17T22:04:00.917Z,65.49
2023-01-17T22:06:27.223Z,65.07
2023-01-17T22:08:53.555Z,64.50
2023-01-17T22:11:19.868Z,65.54
2023-01-17T22:13:46.163Z,65.52
2023-01-17T22:16:12.479Z,65.31
2023-01-17T22:18:41.131Z,66.19
2023-01-17T22:21:07.418Z,65.74
2023-01-17T22:23:33.729Z,67.00
2023-01-17T22:26:00.034Z,67.46
2023-01-17T22:28:26.332Z,67.39
2023-01-17T22:30:52.705Z,67.41
2023-01-17T22:33:19.021Z,67.64
2023-01-17T22:35:45.321Z,68.18
2023-01-17T22:38:11.637Z,68.76
2023-01-17T22:40:37.920Z,68.94
2023-01-17T22:43:04.231Z,70.49
2023-01-17T22:45:30.546Z,70.51
2023-01-17T22:47:56.845Z,71.68
2023-01-17T22:50:23.137Z,71.65
2023-01-17T22:52:49.456Z,71.91
2023-01-17T22:55:15.747Z,70.02
2023-01-17T22:57:42.286Z,71.94
2023-01-17T23:00:08.661Z,72.52
2023-01-17T23:02:34.978Z,73.44
2023-01-17T23:05:01.293Z,74.04
2023-01-17T23:07:27.615Z,73.35
2023-01-17T23:09:53.930Z,73.42
2023-01-17T23:12:20.235Z,73.44
2023-01-17T23:14:46.559Z,73.29
2023-01-17T23:17:12.855Z,71.92
2023-01-17T23:19:39.157Z,71.15
2023-01-17T23:22:05.483Z,71.82
2023-01-17T23:24:31.772Z,71.30
2023-01-17T23:26:58.094Z,71.46
2023-01-17T23:29:24.411Z,70.60
2023-01-17T23:31:50.721Z,69.98
2023-01-17T23:34:17.037Z,69.64
2023-01-17T23:36:43.396Z,69.54
2023-01-17T23:39:09.685Z,70.55
2023-01-17T23:41:35.971Z,70.06
2023-01-17T23:44:02.289Z,69.79
2023-01-17T23:46:28.623Z,69.73
2023-01-17T23:48:55.141Z,68.90
2023-01-17T23:51:21.618Z,69.10
2023-01-17T23:53:47.924Z,69.84
2023-01-17T23:56:14.224Z,69.42
2023-01-17T23:58:40.534Z,70.75
